createdAt,value
2018-10-16T00:01:19.675Z,12.40
2018-10-16T00:03:46.810Z,12.40
2018-10-16T00:06:13.963Z,12.40
2018-10-16T00:08:41.127Z,12.40
2018-10-16T00:11:08.281Z,12.40
2018-10-16T00:13:35.421Z,12.40
2018-10-16T00:16:02.611Z,12.40
2018-10-16T00:18:29.974Z,12.40
2018-10-16T00:20:57.127Z,12.20
2018-10-16T00:23:24.343Z,12.30
2018-10-16T00:25:51.505Z,12.20
2018-10-16T00:28:18.656Z,12.20
2018-10-16T00:30:45.850Z,12.20
2018-10-16T00:33:13.051Z,12.20
2018-10-16T00:35:40.200Z,12.20
2018-10-16T00:38:07.358Z,12.10
2018-10-16T00:40:34.692Z,12.10
2018-10-16T00:43:01.846Z,12.10
2018-10-16T00:45:29.011Z,12.00
2018-10-16T00:47:56.194Z,12.10
2018-10-16T00:50:23.355Z,12.20
2018-10-16T00:52:50.519Z,12.20
2018-10-16T00:55:17.728Z,12.10
2018-10-16T00:57:44.874Z,12.10
2018-10-16T01:00:12.552Z,12.10
2018-10-16T01:02:40.492Z,12.00
2018-10-16T01:05:08.754Z,12.00
2018-10-16T01:07:35.907Z,12.00
2018-10-16T01:10:03.278Z,11.90
2018-10-16T01:12:30.427Z,11.90
2018-10-16T01:14:57.591Z,11.90
2018-10-16T01:17:24.754Z,12.00
2018-10-16T01:19:52.074Z,12.00
2018-10-16T01:22:19.219Z,12.00
2018-10-16T01:24:46.371Z,11.90
2018-10-16T01:27:13.519Z,11.90
2018-10-16T01:29:40.673Z,11.80
2018-10-16T01:32:07.839Z,11.70
2018-10-16T01:34:35.018Z,11.70
2018-10-16T01:37:02.167Z,11.70
2018-10-16T01:39:29.354Z,11.60
2018-10-16T01:41:56.511Z,11.70
2018-10-16T01:44:23.672Z,11.70
2018-10-16T01:46:50.845Z,11.60
2018-10-16T01:49:18.019Z,11.60
2018-10-16T01:51:45.186Z,11.60
2018-10-16T01:54:12.335Z,11.60
2018-10-16T01:56:39.479Z,11.60
2018-10-16T01:59:06.620Z,11.50
2018-10-16T02:01:33.767Z,11.50
2018-10-16T02:04:00.967Z,11.50
2018-10-16T02:06:28.117Z,11.50
2018-10-16T02:08:55.283Z,11.50
2018-10-16T02:11:22.411Z,11.50
2018-10-16T02:13:49.568Z,11.50
2018-10-16T02:16:16.749Z,11.40
2018-10-16T02:18:43.905Z,11.40
2018-10-16T02:21:11.079Z,11.30
2018-10-16T02:23:38.228Z,11.30
2018-10-16T02:26:05.856Z,11.20
2018-10-16T02:28:32.984Z,11.30
2018-10-16T02:31:00.140Z,11.30
2018-10-16T02:33:27.289Z,11.30
2018-10-16T02:35:54.457Z,11.30
2018-10-16T02:38:21.606Z,11.20
2018-10-16T02:40:48.797Z,11.30
2018-10-16T02:43:15.954Z,11.30
2018-10-16T02:45:43.104Z,11.40
2018-10-16T02:48:10.266Z,11.30
2018-10-16T02:50:37.401Z,11.20
2018-10-16T02:53:04.543Z,11.10
2018-10-16T02:55:31.700Z,11.10
2018-10-16T02:57:58.845Z,11.00
2018-10-16T03:00:26.015Z,11.10
2018-10-16T03:02:53.152Z,11.10
2018-10-16T03:05:20.300Z,11.10
2018-10-16T03:07:47.503Z,11.00
2018-10-16T03:10:14.614Z,11.10
2018-10-16T03:12:41.797Z,11.10
2018-10-16T03:15:10.978Z,11.00
2018-10-16T03:17:38.384Z,11.00
2018-10-16T03:20:05.844Z,10.90
2018-10-16T03:22:32.972Z,11.00
2018-10-16T03:25:00.117Z,10.90
2018-10-16T03:27:27.317Z,10.90
2018-10-16T03:29:54.477Z,10.80
2018-10-16T03:32:21.622Z,10.80
2018-10-16T03:34:48.797Z,10.80
2018-10-16T03:37:15.948Z,10.70
2018-10-16T03:39:43.082Z,10.70
2018-10-16T03:42:10.254Z,10.70
2018-10-16T03:44:37.444Z,10.70
2018-10-16T03:47:04.608Z,10.70
2018-10-16T03:49:34.630Z,10.70
2018-10-16T03:52:01.823Z,10.70
2018-10-16T03:54:28.983Z,10.80
2018-10-16T03:56:56.153Z,10.80
2018-10-16T03:59:23.293Z,10.70
2018-10-16T04:01:50.432Z,10.90
2018-10-16T04:04:17.579Z,10.90
2018-10-16T04:06:44.744Z,10.90
2018-10-16T04:09:11.882Z,10.70
2018-10-16T04:11:39.051Z,10.70
2018-10-16T04:14:06.322Z,10.60
2018-10-16T04:16:33.388Z,10.60
2018-10-16T04:19:00.540Z,10.70
2018-10-16T04:21:33.330Z,10.70
2018-10-16T04:24:00.488Z,10.70
2018-10-16T04:26:27.628Z,10.80
2018-10-16T04:28:54.792Z,10.70
2018-10-16T04:31:21.943Z,10.60
2018-10-16T04:33:49.152Z,10.60
2018-10-16T04:36:16.255Z,10.50
2018-10-16T04:38:43.403Z,10.50
2018-10-16T04:41:10.568Z,10.40
2018-10-16T04:43:37.769Z,10.50
2018-10-16T04:46:04.881Z,10.50
2018-10-16T04:48:32.029Z,10.50
2018-10-16T04:50:59.187Z,10.50
2018-10-16T04:53:26.383Z,10.50
2018-10-16T04:55:53.504Z,10.60
2018-10-16T04:58:20.636Z,10.50
2018-10-16T05:00:47.796Z,10.50
2018-10-16T05:03:14.941Z,10.50
2018-10-16T05:05:42.105Z,10.50
2018-10-16T05:08:09.283Z,10.40
2018-10-16T05:10:36.429Z,10.40
2018-10-16T05:13:03.780Z,10.40
2018-10-16T05:15:33.603Z,10.40
2018-10-16T05:18:00.980Z,10.40
2018-10-16T05:20:28.205Z,10.30
2018-10-16T05:22:56.296Z,10.30
2018-10-16T05:25:24.237Z,10.30
2018-10-16T05:27:51.384Z,10.30
2018-10-16T05:30:18.530Z,10.30
2018-10-16T05:32:45.912Z,10.30
2018-10-16T05:35:13.100Z,10.30
2018-10-16T05:37:40.839Z,10.20
2018-10-16T05:40:08.905Z,10.20
2018-10-16T05:42:36.464Z,10.20
2018-10-16T05:45:03.979Z,10.30
2018-10-16T05:47:31.181Z,10.20
2018-10-16T05:49:58.426Z,10.30
2018-10-16T05:52:25.568Z,10.30
2018-10-16T05:54:52.747Z,10.30
2018-10-16T05:57:19.899Z,10.30
2018-10-16T05:59:47.044Z,10.40
2018-10-16T06:02:14.211Z,10.40
2018-10-16T06:04:41.355Z,10.50
2018-10-16T06:07:08.495Z,10.50
2018-10-16T06:09:35.651Z,10.50
2018-10-16T06:12:02.817Z,10.50
2018-10-16T06:14:29.956Z,10.60
2018-10-16T06:16:57.232Z,10.70
2018-10-16T06:19:24.389Z,10.90
2018-10-16T06:21:51.540Z,11.30
2018-10-16T06:24:18.853Z,11.50
2018-10-16T06:26:45.999Z,11.60
2018-10-16T06:29:13.141Z,11.60
2018-10-16T06:31:40.349Z,11.70
2018-10-16T06:34:07.495Z,11.80
2018-10-16T06:36:34.640Z,11.90
2018-10-16T06:39:01.827Z,12.00
2018-10-16T06:41:29.141Z,12.70
2018-10-16T06:43:56.324Z,14.30
2018-10-16T06:46:23.465Z,15.70
2018-10-16T06:48:50.920Z,16.80
2018-10-16T06:51:17.752Z,17.80
2018-10-16T06:53:45.464Z,18.60
2018-10-16T06:56:12.629Z,19.30
2018-10-16T06:58:39.796Z,19.80
2018-10-16T07:01:06.964Z,20.10
2018-10-16T07:03:34.100Z,20.20
2018-10-16T07:06:01.232Z,20.60
2018-10-16T07:08:28.387Z,20.90
2018-10-16T07:10:55.519Z,21.00
2018-10-16T07:13:22.677Z,21.20
2018-10-16T07:15:49.835Z,21.90
2018-10-16T07:18:17.014Z,22.10
2018-10-16T07:20:44.136Z,21.70
2018-10-16T07:23:11.369Z,22.70
2018-10-16T07:25:38.473Z,22.90
2018-10-16T07:28:05.653Z,23.80
2018-10-16T07:30:32.828Z,23.80
2018-10-16T07:33:00.002Z,24.00
2018-10-16T07:35:27.156Z,24.50
2018-10-16T07:37:54.351Z,24.50
2018-10-16T07:40:21.460Z,24.70
2018-10-16T07:42:48.611Z,23.60
2018-10-16T07:45:16.670Z,23.60
2018-10-16T07:47:43.837Z,23.30
2018-10-16T07:50:11.777Z,24.00
2018-10-16T07:52:38.946Z,23.90
2018-10-16T07:55:07.707Z,24.00
2018-10-16T07:57:34.881Z,24.20
2018-10-16T08:00:02.080Z,24.20
2018-10-16T08:02:29.236Z,24.50
2018-10-16T08:04:56.392Z,24.60
2018-10-16T08:07:23.554Z,24.40
2018-10-16T08:09:50.713Z,24.00
2018-10-16T08:12:17.886Z,23.10
2018-10-16T08:14:45.028Z,22.80
2018-10-16T08:17:12.275Z,22.10
2018-10-16T08:19:39.317Z,21.30
2018-10-16T08:22:06.507Z,20.90
2018-10-16T08:24:33.656Z,20.40
2018-10-16T08:27:00.888Z,19.80
2018-10-16T08:29:28.010Z,19.20
2018-10-16T08:31:55.168Z,18.50
2018-10-16T08:34:22.336Z,18.40
2018-10-16T08:36:49.593Z,18.20
2018-10-16T08:39:23.005Z,18.00
2018-10-16T08:44:05.543Z,17.90
2018-10-16T08:46:44.499Z,17.80
2018-10-16T08:49:23.108Z,17.70
2018-10-16T08:51:51.530Z,17.60
2018-10-16T08:54:18.796Z,17.50
2018-10-16T08:56:45.960Z,17.50
2018-10-16T08:59:13.107Z,17.30
2018-10-16T09:01:40.295Z,17.10
2018-10-16T09:04:07.472Z,17.10
2018-10-16T09:06:34.694Z,17.20
2018-10-16T09:09:02.421Z,17.20
2018-10-16T09:11:29.551Z,17.20
2018-10-16T09:13:56.825Z,17.20
2018-10-16T09:16:24.264Z,17.10
2018-10-16T09:18:51.457Z,17.20
2018-10-16T09:21:18.652Z,17.40
2018-10-16T09:23:45.827Z,17.30
2018-10-16T09:26:12.968Z,17.40
2018-10-16T09:28:40.128Z,17.40
2018-10-16T09:31:07.333Z,17.50
2018-10-16T09:33:34.420Z,17.40
2018-10-16T09:36:01.594Z,17.50
2018-10-16T09:38:28.785Z,17.50
2018-10-16T09:40:56.176Z,17.40
2018-10-16T09:43:23.383Z,17.50
2018-10-16T09:45:50.564Z,17.40
2018-10-16T09:48:17.736Z,17.60
2018-10-16T09:50:44.880Z,17.50
2018-10-16T09:53:12.035Z,17.80
2018-10-16T09:55:39.216Z,17.90
2018-10-16T09:58:06.442Z,17.90
2018-10-16T10:00:39.425Z,17.80
2018-10-16T10:03:06.574Z,17.70
2018-10-16T10:05:34.049Z,17.70
2018-10-16T10:08:01.241Z,17.70
2018-10-16T10:10:28.397Z,17.70
2018-10-16T10:12:55.568Z,17.70
2018-10-16T10:15:22.715Z,17.80
2018-10-16T10:17:49.859Z,17.80
2018-10-16T10:20:17.023Z,17.80
2018-10-16T10:22:44.163Z,17.90
2018-10-16T10:25:11.400Z,18.00
2018-10-16T10:27:38.547Z,18.00
2018-10-16T10:30:08.192Z,17.90
2018-10-16T10:32:35.568Z,18.10
2018-10-16T10:35:02.720Z,18.10
2018-10-16T10:37:29.894Z,18.10
2018-10-16T10:39:57.038Z,18.30
2018-10-16T10:42:24.216Z,18.40
2018-10-16T10:44:51.343Z,18.40
2018-10-16T10:47:18.475Z,18.60
2018-10-16T10:49:45.614Z,18.70
2018-10-16T10:52:12.759Z,18.90
2018-10-16T10:54:39.922Z,19.10
2018-10-16T10:57:07.564Z,19.10
2018-10-16T10:59:34.532Z,19.30
2018-10-16T11:02:01.884Z,19.30
2018-10-16T11:04:29.017Z,19.40
2018-10-16T11:06:56.164Z,19.40
2018-10-16T11:09:23.324Z,19.40
2018-10-16T11:11:56.228Z,19.30
2018-10-16T11:14:24.301Z,19.40
2018-10-16T11:16:51.550Z,19.40
2018-10-16T11:19:19.031Z,19.30
2018-10-16T11:21:46.472Z,19.50
2018-10-16T11:24:13.615Z,19.70
2018-10-16T11:26:40.743Z,19.70
2018-10-16T11:29:07.891Z,19.70
2018-10-16T11:31:35.268Z,19.90
2018-10-16T11:34:02.419Z,20.00
2018-10-16T11:36:29.847Z,20.00
2018-10-16T11:38:57.008Z,20.10
2018-10-16T11:41:24.164Z,20.20
2018-10-16T11:43:51.335Z,20.10
2018-10-16T11:46:18.528Z,20.10
2018-10-16T11:48:45.667Z,20.10
2018-10-16T11:51:12.812Z,20.30
2018-10-16T11:53:40.028Z,20.50
2018-10-16T11:56:07.314Z,20.50
2018-10-16T11:58:34.425Z,20.50
2018-10-16T12:01:01.643Z,20.40
2018-10-16T12:03:28.773Z,20.30
2018-10-16T12:05:55.921Z,20.30
2018-10-16T12:08:23.039Z,20.50
2018-10-16T12:10:50.231Z,20.70
2018-10-16T12:13:17.368Z,20.70
2018-10-16T12:15:44.492Z,20.70
2018-10-16T12:18:17.905Z,20.70
2018-10-16T12:20:52.376Z,20.80
2018-10-16T12:23:19.504Z,20.80
2018-10-16T12:25:46.712Z,20.90
2018-10-16T12:28:13.871Z,21.00
2018-10-16T12:30:41.023Z,20.90
2018-10-16T12:33:08.235Z,21.10
2018-10-16T12:35:35.309Z,21.20
2018-10-16T12:38:02.448Z,21.10
2018-10-16T12:40:29.588Z,21.10
2018-10-16T12:42:56.829Z,21.10
2018-10-16T12:45:23.899Z,21.10
2018-10-16T12:47:51.079Z,21.30
2018-10-16T12:50:18.219Z,21.40
2018-10-16T12:52:45.343Z,21.30
2018-10-16T12:55:12.512Z,21.20
2018-10-16T12:57:39.680Z,21.20
2018-10-16T13:00:07.161Z,21.20
2018-10-16T13:02:34.282Z,21.20
2018-10-16T13:05:01.475Z,21.20
2018-10-16T13:07:38.312Z,21.30
2018-10-16T13:10:09.168Z,21.10
2018-10-16T13:12:36.312Z,21.20
2018-10-16T13:15:04.575Z,21.20
2018-10-16T13:17:31.746Z,21.20
2018-10-16T13:19:59.007Z,21.40
2018-10-16T13:22:26.127Z,21.40
2018-10-16T13:24:53.280Z,21.40
2018-10-16T13:27:20.452Z,21.30
2018-10-16T13:29:47.646Z,21.30
2018-10-16T13:32:14.889Z,21.40
2018-10-16T13:34:41.989Z,21.60
2018-10-16T13:37:09.152Z,21.50
2018-10-16T13:39:36.317Z,21.40
2018-10-16T13:42:03.515Z,21.40
2018-10-16T13:44:30.877Z,21.40
2018-10-16T13:46:58.045Z,21.40
2018-10-16T13:49:25.809Z,21.50
2018-10-16T13:51:53.001Z,21.40
2018-10-16T13:54:21.607Z,21.40
2018-10-16T13:56:48.949Z,21.30
2018-10-16T13:59:16.634Z,21.30
2018-10-16T14:01:43.808Z,21.40
2018-10-16T14:04:11.561Z,21.20
2018-10-16T14:06:38.950Z,21.30
2018-10-16T14:09:07.387Z,21.30
2018-10-16T14:11:34.544Z,21.30
2018-10-16T14:14:01.824Z,21.20
2018-10-16T14:16:29.186Z,21.20
2018-10-16T14:18:56.355Z,21.20
2018-10-16T14:21:23.637Z,21.20
2018-10-16T14:23:50.789Z,21.30
2018-10-16T14:26:17.909Z,21.20
2018-10-16T14:28:45.067Z,21.30
2018-10-16T14:31:12.215Z,21.40
2018-10-16T14:33:39.418Z,21.30
2018-10-16T14:36:06.566Z,21.20
2018-10-16T14:38:33.847Z,21.30
2018-10-16T14:41:01.000Z,21.30
2018-10-16T14:43:28.576Z,21.40
2018-10-16T14:45:55.790Z,21.30
2018-10-16T14:48:22.885Z,21.20
2018-10-16T14:50:50.018Z,21.10
2018-10-16T14:53:17.275Z,21.10
2018-10-16T14:55:44.562Z,21.00
2018-10-16T14:58:11.771Z,20.90
2018-10-16T15:00:38.893Z,20.80
2018-10-16T15:03:06.048Z,20.80
2018-10-16T15:05:33.204Z,20.80
2018-10-16T15:08:00.398Z,20.80
2018-10-16T15:10:27.640Z,21.00
2018-10-16T15:12:54.736Z,21.00
2018-10-16T15:15:21.926Z,21.00
2018-10-16T15:17:49.099Z,20.80
2018-10-16T15:20:16.328Z,20.70
2018-10-16T15:22:43.426Z,20.60
2018-10-16T15:25:10.584Z,20.60
2018-10-16T15:27:37.823Z,20.70
2018-10-16T15:30:06.570Z,20.50
2018-10-16T15:32:33.715Z,20.40
2018-10-16T15:35:00.876Z,20.30
2018-10-16T15:37:28.028Z,20.20
2018-10-16T15:39:55.234Z,20.20
2018-10-16T15:42:22.909Z,20.10
2018-10-16T15:44:50.100Z,20.10
2018-10-16T15:47:17.249Z,20.10
2018-10-16T15:49:44.419Z,20.10
2018-10-16T15:52:11.679Z,20.00
2018-10-16T15:54:38.760Z,19.90
2018-10-16T15:57:05.923Z,19.90
2018-10-16T15:59:33.086Z,19.90
2018-10-16T16:02:00.344Z,20.00
2018-10-16T16:04:27.704Z,19.80
2018-10-16T16:09:28.667Z,19.80
2018-10-16T16:11:55.877Z,19.80
2018-10-16T16:14:22.952Z,19.70
2018-10-16T16:16:50.179Z,19.90
2018-10-16T16:19:17.347Z,19.80
2018-10-16T16:21:44.604Z,19.80
2018-10-16T16:24:11.951Z,19.80
2018-10-16T16:26:38.998Z,19.70
2018-10-16T16:29:06.136Z,19.50
2018-10-16T16:31:33.267Z,19.60
2018-10-16T16:34:00.470Z,19.40
2018-10-16T16:36:27.682Z,19.20
2018-10-16T16:38:54.809Z,19.10
2018-10-16T16:41:21.967Z,19.00
2018-10-16T16:43:49.324Z,18.90
2018-10-16T16:46:16.320Z,19.10
2018-10-16T16:48:43.459Z,19.10
2018-10-16T16:51:10.627Z,18.90
2018-10-16T16:53:37.739Z,18.80
2018-10-16T16:56:04.956Z,19.00
2018-10-16T16:58:32.363Z,19.00
2018-10-16T17:00:59.503Z,19.00
2018-10-16T17:03:26.656Z,18.90
2018-10-16T17:05:53.867Z,19.10
2018-10-16T17:08:20.992Z,19.10
2018-10-16T17:10:48.151Z,19.10
2018-10-16T17:13:15.300Z,19.10
2018-10-16T17:15:42.446Z,19.10
2018-10-16T17:18:09.626Z,19.10
2018-10-16T17:20:36.769Z,19.00
2018-10-16T17:23:04.165Z,18.90
2018-10-16T17:25:31.694Z,18.70
2018-10-16T17:27:58.664Z,18.60
2018-10-16T17:30:25.765Z,18.30
2018-10-16T17:32:52.943Z,18.00
2018-10-16T17:35:20.066Z,17.80
2018-10-16T17:37:47.211Z,17.60
2018-10-16T17:40:15.764Z,17.50
2018-10-16T17:42:43.240Z,17.30
2018-10-16T17:45:11.896Z,17.10
2018-10-16T17:47:38.972Z,17.10
2018-10-16T17:50:08.165Z,17.10
2018-10-16T17:52:35.632Z,17.10
2018-10-16T17:55:02.901Z,17.10
2018-10-16T17:57:30.114Z,17.00
2018-10-16T17:59:57.324Z,17.00
2018-10-16T18:02:24.475Z,17.00
2018-10-16T18:04:51.655Z,17.10
2018-10-16T18:07:18.838Z,17.30
2018-10-16T18:09:45.976Z,17.30
2018-10-16T18:12:13.129Z,17.20
2018-10-16T18:14:40.287Z,17.30
2018-10-16T18:17:07.537Z,17.20
2018-10-16T18:19:34.701Z,17.10
2018-10-16T18:22:01.836Z,17.20
2018-10-16T18:24:29.097Z,17.10
2018-10-16T18:26:56.289Z,17.10
2018-10-16T18:29:23.475Z,17.10
2018-10-16T18:31:50.660Z,17.00
2018-10-16T18:34:17.807Z,16.90
2018-10-16T18:36:44.971Z,16.90
2018-10-16T18:39:12.164Z,16.80
2018-10-16T18:41:39.257Z,16.70
2018-10-16T18:44:06.418Z,16.60
2018-10-16T18:46:33.572Z,16.60
2018-10-16T18:49:00.702Z,16.60
2018-10-16T18:51:27.861Z,16.70
2018-10-16T18:53:55.446Z,16.60
2018-10-16T18:56:22.617Z,16.70
2018-10-16T18:58:49.809Z,16.80
2018-10-16T19:01:16.968Z,16.80
2018-10-16T19:03:44.112Z,16.80
2018-10-16T19:06:11.263Z,16.80
2018-10-16T19:08:38.419Z,16.90
2018-10-16T19:11:05.577Z,16.80
2018-10-16T19:13:32.823Z,16.80
2018-10-16T19:15:59.956Z,16.90
2018-10-16T19:18:27.166Z,16.80
2018-10-16T19:20:54.392Z,16.70
2018-10-16T19:23:21.504Z,16.70
2018-10-16T19:25:48.661Z,16.60
2018-10-16T19:28:15.796Z,16.60
2018-10-16T19:30:42.957Z,16.60
2018-10-16T19:33:10.132Z,16.50
2018-10-16T19:35:37.306Z,16.50
2018-10-16T19:38:04.792Z,16.50
2018-10-16T19:40:31.934Z,16.50
2018-10-16T19:42:59.056Z,16.50
2018-10-16T19:45:26.277Z,16.50
2018-10-16T19:47:53.403Z,16.50
2018-10-16T19:50:20.555Z,16.50
2018-10-16T19:52:47.687Z,16.50
2018-10-16T19:55:14.842Z,16.40
2018-10-16T19:57:41.986Z,16.40
2018-10-16T20:00:09.707Z,16.40
2018-10-16T20:02:36.831Z,16.40
2018-10-16T20:05:04.279Z,16.50
2018-10-16T20:07:31.430Z,16.60
2018-10-16T20:09:58.782Z,16.60
2018-10-16T20:12:25.872Z,16.60
2018-10-16T20:14:53.013Z,16.60
2018-10-16T20:17:20.276Z,16.60
2018-10-16T20:19:47.511Z,16.60
2018-10-16T20:22:14.548Z,16.70
2018-10-16T20:24:41.708Z,16.70
2018-10-16T20:27:08.975Z,16.60
2018-10-16T20:29:36.102Z,16.50
2018-10-16T20:32:03.579Z,16.40
2018-10-16T20:34:30.727Z,16.40
2018-10-16T20:36:57.920Z,16.40
2018-10-16T20:39:25.025Z,16.40
2018-10-16T20:41:52.198Z,16.40
2018-10-16T20:44:19.335Z,16.50
2018-10-16T20:46:46.483Z,16.50
2018-10-16T20:49:13.721Z,16.40
2018-10-16T20:51:40.787Z,16.40
2018-10-16T20:54:14.614Z,16.30
2018-10-16T20:56:41.771Z,16.20
2018-10-16T20:59:08.975Z,16.20
2018-10-16T21:01:36.136Z,16.20
2018-10-16T21:04:03.535Z,16.10
2018-10-16T21:06:30.915Z,16.10
2018-10-16T21:08:57.888Z,16.20
2018-10-16T21:11:25.024Z,16.10
2018-10-16T21:13:52.164Z,16.10
2018-10-16T21:16:19.293Z,16.10
2018-10-16T21:18:46.471Z,16.10
2018-10-16T21:21:13.637Z,15.90
2018-10-16T21:23:40.820Z,16.00
2018-10-16T21:26:08.001Z,15.90
2018-10-16T21:28:35.170Z,15.90
2018-10-16T21:31:02.364Z,15.80
2018-10-16T21:33:29.731Z,15.80
2018-10-16T21:35:56.902Z,15.80
2018-10-16T21:38:24.050Z,15.70
2018-10-16T21:40:51.206Z,15.60
2018-10-16T21:43:18.612Z,15.60
2018-10-16T21:45:45.787Z,15.50
2018-10-16T21:48:13.119Z,15.50
2018-10-16T21:50:40.259Z,15.30
2018-10-16T21:53:07.422Z,15.30
2018-10-16T21:55:34.588Z,15.20
2018-10-16T21:58:01.728Z,15.20
2018-10-16T22:00:36.187Z,15.10
2018-10-16T22:03:03.381Z,15.10
2018-10-16T22:05:30.504Z,15.10
2018-10-16T22:07:57.718Z,15.00
2018-10-16T22:10:24.864Z,14.90
2018-10-16T22:12:52.182Z,14.80
2018-10-16T22:15:20.187Z,14.80
2018-10-16T22:17:47.468Z,14.80
2018-10-16T22:20:14.858Z,14.80
2018-10-16T22:22:43.059Z,14.80
2018-10-16T22:25:10.238Z,14.70
2018-10-16T22:27:37.386Z,14.60
2018-10-16T22:30:04.911Z,14.50
2018-10-16T22:32:32.028Z,14.40
2018-10-16T22:34:59.277Z,14.40
2018-10-16T22:37:26.423Z,14.40
2018-10-16T22:39:53.555Z,14.40
2018-10-16T22:42:20.687Z,14.30
2018-10-16T22:44:47.936Z,14.20
2018-10-16T22:47:15.028Z,14.10
2018-10-16T22:49:42.147Z,14.10
2018-10-16T22:52:09.315Z,14.20
2018-10-16T22:54:36.471Z,14.40
2018-10-16T22:57:03.627Z,14.30
2018-10-16T22:59:30.771Z,14.20
2018-10-16T23:01:57.979Z,14.10
2018-10-16T23:04:25.120Z,14.00
2018-10-16T23:06:52.295Z,13.80
2018-10-16T23:09:19.419Z,13.80
2018-10-16T23:11:46.558Z,13.70
2018-10-16T23:14:13.701Z,13.60
2018-10-16T23:16:40.847Z,13.60
2018-10-16T23:19:08.011Z,13.50
2018-10-16T23:21:35.128Z,13.50
2018-10-16T23:24:02.251Z,13.50
2018-10-16T23:26:29.379Z,13.40
2018-10-16T23:28:56.549Z,13.40
2018-10-16T23:31:23.632Z,13.40
2018-10-16T23:33:50.760Z,13.40
2018-10-16T23:36:24.592Z,13.40
2018-10-16T23:38:51.732Z,13.30
2018-10-16T23:41:18.872Z,13.30
2018-10-16T23:43:46.000Z,13.30
2018-10-16T23:46:13.147Z,13.40
2018-10-16T23:48:40.247Z,13.30
2018-10-16T23:51:07.618Z,13.30
2018-10-16T23:53:34.744Z,13.30
2018-10-16T23:56:01.882Z,13.10
2018-10-16T23:58:29.019Z,13.10
